San Luis Obispo, California
Current Conditions -  °F | °C
As of 5:56 PM on Monday 22 Dec 2014 (Local Time) from KSBP Reporting Station
Clear Clear  
Wind Chill: 62°   Ceiling: Unl
Heat Index: 62°   Visibility: 10mi
Dew Point: 51°   Wind: 12mph
Humidity: 67%   Direction: 320°NW
Pressure: 30.1"   Gusts: NA
Location:  35.29°N, 120.66°W
Report Text: KSBP 230156Z 32010KT 10SM CLR 17/11 A3010 RMK AO2 SLP190 T01670106
Loading
Personal Weather Stations






























Interactive Weather Map New forecast layout! Learn more

10-Day Weather Forecast

Advertisements
Track Severe Weather on mobile